createdAt,value
2022-12-06T06:56:45.223Z,47.33
2022-12-06T07:01:46.865Z,43.58
2022-12-06T07:06:48.633Z,44.78
2022-12-06T07:11:50.251Z,49.30
2022-12-06T07:16:51.763Z,57.20
2022-12-06T07:21:53.546Z,60.13
2022-12-06T07:32:38.307Z,68.63
2022-12-06T07:37:43.166Z,61.28
2022-12-06T07:42:44.838Z,61.03
2022-12-06T07:47:46.633Z,57.22
2022-12-06T07:52:50.011Z,66.22
2022-12-06T07:57:51.746Z,60.53
2022-12-06T08:02:53.348Z,63.63
2022-12-06T08:07:54.952Z,57.55
2022-12-06T08:12:56.504Z,65.63
2022-12-06T08:17:58.225Z,68.32
2022-12-06T08:22:59.787Z,71.60
2022-12-06T08:28:01.526Z,59.97
2022-12-06T08:33:03.161Z,62.42
2022-12-06T08:38:04.892Z,70.65
2022-12-06T08:43:06.460Z,75.15
2022-12-06T08:48:07.961Z,69.95
2022-12-06T09:06:08.037Z,53.58
2022-12-06T09:11:09.906Z,52.28
2022-12-06T09:16:23.341Z,55.47
2022-12-06T09:21:26.743Z,49.50
2022-12-06T09:26:28.549Z,53.55
2022-12-06T09:31:30.327Z,47.45
2022-12-06T09:36:32.020Z,57.22
2022-12-06T09:42:01.834Z,63.80
2022-12-06T09:47:18.638Z,48.97
2022-12-06T09:53:12.102Z,53.58
2022-12-06T09:58:41.749Z,48.10
2022-12-06T10:03:56.276Z,41.80
2022-12-06T10:09:30.160Z,44.40
2022-12-06T10:15:11.715Z,43.72
2022-12-06T10:20:25.485Z,36.92
2022-12-06T10:25:51.305Z,38.83
2022-12-06T10:30:59.160Z,36.63
2022-12-06T10:36:03.473Z,36.97
2022-12-06T10:41:23.581Z,35.25
2022-12-06T10:46:35.009Z,41.28
2022-12-06T10:51:53.583Z,40.13
2022-12-06T10:57:00.164Z,48.30
2022-12-06T11:02:16.406Z,42.65
2022-12-06T11:07:41.676Z,31.80
2022-12-06T11:12:43.687Z,31.48
2022-12-06T11:17:58.016Z,34.50
2022-12-06T11:23:19.387Z,28.63
2022-12-06T11:28:41.919Z,31.15
2022-12-06T11:33:43.653Z,28.67
2022-12-06T11:38:45.802Z,28.75
2022-12-06T11:43:48.074Z,26.05
2022-12-06T11:48:50.539Z,24.73
2022-12-06T11:54:05.261Z,25.10
2022-12-06T11:59:31.295Z,22.75
2022-12-06T12:04:41.930Z,23.30
2022-12-06T12:09:50.910Z,20.38
2022-12-06T12:14:58.942Z,24.42
2022-12-06T12:20:07.802Z,21.75
2022-12-06T12:25:28.943Z,19.13
2022-12-06T12:30:36.393Z,18.23
2022-12-06T12:35:41.061Z,17.50
2022-12-06T12:41:03.652Z,15.95
2022-12-06T12:46:11.161Z,20.85
2022-12-06T12:51:21.889Z,13.57
2022-12-06T12:56:23.795Z,21.38
2022-12-06T13:01:25.410Z,12.80
2022-12-06T13:06:40.733Z,12.40
2022-12-06T13:11:48.843Z,14.40
2022-12-06T13:16:54.378Z,13.38
2022-12-06T13:21:56.467Z,14.25
2022-12-06T13:26:59.851Z,13.93
2022-12-06T13:32:12.092Z,10.68
2022-12-06T13:37:51.161Z,16.67
2022-12-06T13:42:52.946Z,12.63
2022-12-06T13:47:54.575Z,13.07
2022-12-06T13:52:56.170Z,13.50
2022-12-06T13:57:58.034Z,12.18
2022-12-06T14:03:01.874Z,13.10
2022-12-06T14:08:04.081Z,14.13
2022-12-06T14:13:05.975Z,13.63
2022-12-06T14:18:19.007Z,17.52
2022-12-06T14:23:33.843Z,13.68
2022-12-06T14:28:38.035Z,17.45
2022-12-06T14:33:39.835Z,15.10
2022-12-06T14:38:41.691Z,15.80
2022-12-06T14:43:47.248Z,11.35
2022-12-06T14:48:48.950Z,13.68
2022-12-06T14:53:51.192Z,11.75
2022-12-06T14:58:52.985Z,12.27
2022-12-06T15:04:25.170Z,12.50
2022-12-06T15:09:30.358Z,11.57
2022-12-06T15:14:35.008Z,12.32
2022-12-06T15:19:46.333Z,11.55
2022-12-06T15:24:50.581Z,11.55
2022-12-06T15:29:52.763Z,10.98
2022-12-06T15:34:54.354Z,15.82
2022-12-06T15:39:55.932Z,13.38
2022-12-06T15:44:58.227Z,11.18
2022-12-06T15:49:59.959Z,11.90
2022-12-06T15:55:01.877Z,16.35
2022-12-06T16:00:04.517Z,13.05
2022-12-06T16:05:07.403Z,12.05
2022-12-06T16:10:09.367Z,12.27
2022-12-06T16:15:11.121Z,12.63
2022-12-06T16:20:16.001Z,16.48
2022-12-06T16:25:17.781Z,18.85
2022-12-06T16:30:32.433Z,16.45
2022-12-06T16:35:34.314Z,17.95
2022-12-06T16:40:35.964Z,15.90
2022-12-06T16:45:40.670Z,24.05
2022-12-06T16:50:42.742Z,20.85
2022-12-06T16:55:44.620Z,26.00
2022-12-06T17:00:46.555Z,35.67
2022-12-06T17:05:48.248Z,23.60
2022-12-06T17:10:50.140Z,28.88
2022-12-06T17:15:52.848Z,23.35
2022-12-06T17:20:54.531Z,20.85
2022-12-06T17:25:57.330Z,21.23
2022-12-06T17:30:59.026Z,19.20
2022-12-06T17:36:08.508Z,20.95
2022-12-06T17:41:19.037Z,21.63
2022-12-06T17:46:20.848Z,20.50
2022-12-06T17:51:23.141Z,15.70
2022-12-06T17:56:29.670Z,16.92
2022-12-06T18:01:51.294Z,17.02
2022-12-06T18:06:54.401Z,14.38
2022-12-06T18:11:56.067Z,17.45
2022-12-06T18:16:57.713Z,17.10
2022-12-06T18:21:59.469Z,16.75
2022-12-06T18:27:01.265Z,13.63
2022-12-06T18:32:03.889Z,17.40
2022-12-06T18:37:05.994Z,21.70
2022-12-06T18:42:07.820Z,21.15
2022-12-06T18:47:09.504Z,24.45
2022-12-06T18:52:11.097Z,24.48
2022-12-06T18:57:12.720Z,25.60
2022-12-06T19:02:14.822Z,24.95
2022-12-06T19:07:20.580Z,20.65
2022-12-06T19:12:25.511Z,20.25
2022-12-06T19:17:27.342Z,19.70
2022-12-06T19:22:28.996Z,17.08
2022-12-06T19:27:30.747Z,20.65
2022-12-06T19:32:33.230Z,22.10
2022-12-06T19:37:34.918Z,21.50
2022-12-06T19:42:39.783Z,23.38
2022-12-06T19:47:41.425Z,23.17
2022-12-06T19:52:43.032Z,23.10
2022-12-06T19:57:45.212Z,21.20
2022-12-06T20:02:46.865Z,20.80
2022-12-06T20:07:48.509Z,23.00
2022-12-06T20:12:50.447Z,21.38
2022-12-06T20:17:52.025Z,26.95
2022-12-06T20:22:54.817Z,33.95
2022-12-06T20:27:56.476Z,24.38
2022-12-06T20:32:58.354Z,22.17
2022-12-06T20:37:59.920Z,19.02
2022-12-06T20:43:01.968Z,21.92
2022-12-06T20:48:03.882Z,19.73
2022-12-06T20:53:05.479Z,19.58
2022-12-06T20:58:07.071Z,21.17
2022-12-06T21:03:09.001Z,22.95
2022-12-06T21:08:10.836Z,17.77
2022-12-06T21:13:12.574Z,18.30
2022-12-06T21:18:18.914Z,21.77
2022-12-06T21:23:21.611Z,18.48
2022-12-06T21:28:23.562Z,19.88
2022-12-06T21:33:25.784Z,18.60
2022-12-06T21:38:30.014Z,22.00
2022-12-06T21:43:31.631Z,21.50
2022-12-06T21:48:33.705Z,20.25
2022-12-06T21:53:36.020Z,23.90
2022-12-06T21:58:37.832Z,22.73
2022-12-06T22:03:39.990Z,26.40
2022-12-06T22:08:43.252Z,18.23
2022-12-06T22:13:45.618Z,22.35
2022-12-06T22:18:47.251Z,21.67
2022-12-06T22:23:48.776Z,26.42
2022-12-06T22:28:51.042Z,23.10
2022-12-06T22:33:53.276Z,21.75
2022-12-06T22:38:57.050Z,25.58
2022-12-06T22:44:01.302Z,22.92
2022-12-06T22:49:03.910Z,28.17
2022-12-06T22:54:09.375Z,26.73
2022-12-06T22:59:10.946Z,32.13
2022-12-06T23:04:12.487Z,32.05
2022-12-06T23:09:15.901Z,31.73
2022-12-06T23:14:17.483Z,38.35
2022-12-06T23:19:18.971Z,38.97
2022-12-06T23:24:20.458Z,45.15
2022-12-06T23:29:21.952Z,46.38
2022-12-06T23:34:24.577Z,45.97
2022-12-06T23:39:26.118Z,46.25
2022-12-06T23:44:27.671Z,46.40
2022-12-06T23:49:29.182Z,41.42
2022-12-06T23:54:30.725Z,37.83
2022-12-06T23:59:32.329Z,43.00
